Time;durP1;ratioP1;P1;durP2;ratioP2;P2;SDS_P1;SDS_P2;PMS_P1;PMS_P2;Temp;Humidity;BMP_temperature;BMP_pressure;BME280_temperature;BME280_humidity;BME280_pressure;Samples;Min_cycle;Max_cycle;Signal;HPM_P1;HPM_P2
2022/11/15 00:00:28;;;;;;;41.20;27.90;;;;;;;;;;4985635;28;21760;-73
2022/11/15 00:02:54;;;;;;;39.22;27.52;;;;;;;;;;4988313;28;20049;-74
2022/11/15 00:05:20;;;;;;;39.53;26.50;;;;;;;;;;4988969;28;20080;-74
2022/11/15 00:07:46;;;;;;;42.17;28.40;;;;;;;;;;4974717;28;20045;-74
2022/11/15 00:10:12;;;;;;;38.30;27.08;;;;;;;;;;4989961;28;20091;-74
2022/11/15 00:12:38;;;;;;;37.88;26.48;;;;;;;;;;4989802;28;20691;-74
2022/11/15 00:15:04;;;;;;;42.38;29.25;;;;;;;;;;4986636;28;20051;-74
2022/11/15 00:17:31;;;;;;;40.90;26.75;;;;;;;;;;4993063;28;20049;-74
2022/11/15 00:19:57;;;;;;;38.58;26.55;;;;;;;;;;4993718;28;20106;-73
2022/11/15 00:22:23;;;;;;;40.90;26.95;;;;;;;;;;4993018;28;20045;-73
2022/11/15 00:24:49;;;;;;;39.90;27.42;;;;;;;;;;5011139;28;20092;-74
2022/11/15 00:27:15;;;;;;;38.55;27.60;;;;;;;;;;5005041;28;20087;-73
2022/11/15 00:29:43;;;;;;;39.50;26.35;;;;;;;;;;5009522;28;20041;-74
2022/11/15 00:32:12;;;;;;;41.20;27.67;;;;;;;;;;4991152;28;20057;-74
2022/11/15 00:34:38;;;;;;;36.33;26.05;;;;;;;;;;4986406;28;20135;-74
2022/11/15 00:37:04;;;;;;;41.78;26.13;;;;;;;;;;5007823;28;20059;-74
2022/11/15 00:39:30;;;;;;;39.30;25.73;;;;;;;;;;5000827;28;20175;-74
2022/11/15 00:41:56;;;;;;;35.47;25.25;;;;;;;;;;5001242;28;20049;-75
2022/11/15 00:44:22;;;;;;;37.40;26.73;;;;;;;;;;5024135;28;20077;-74
2022/11/15 00:46:48;;;;;;;37.55;26.67;;;;;;;;;;5021420;28;20038;-74
2022/11/15 00:49:14;;;;;;;37.72;27.23;;;;;;;;;;4961105;28;20043;-74
2022/11/15 00:51:40;;;;;;;37.90;26.10;;;;;;;;;;4987266;28;20128;-74
2022/11/15 00:54:06;;;;;;;38.17;25.60;;;;;;;;;;5001958;28;20073;-75
2022/11/15 00:56:33;;;;;;;38.78;25.88;;;;;;;;;;5001715;28;20079;-74
2022/11/15 00:58:59;;;;;;;37.83;26.38;;;;;;;;;;4975446;28;20041;-74
2022/11/15 01:01:25;;;;;;;35.80;25.05;;;;;;;;;;5002340;28;20048;-74
2022/11/15 01:03:51;;;;;;;39.78;27.52;;;;;;;;;;5003726;28;20576;-74
2022/11/15 01:06:17;;;;;;;35.67;26.08;;;;;;;;;;4998228;28;20042;-74
2022/11/15 01:08:43;;;;;;;39.53;26.92;;;;;;;;;;5005255;28;20048;-74
2022/11/15 01:11:11;;;;;;;41.55;26.27;;;;;;;;;;5000954;28;20033;-74
2022/11/15 01:13:37;;;;;;;45.90;27.10;;;;;;;;;;5001054;28;20037;-74
2022/11/15 01:16:22;;;;;;;40.38;27.50;;;;;;;;;;4988526;28;21003;-74
2022/11/15 01:18:48;;;;;;;38.60;27.05;;;;;;;;;;5000990;28;20077;-73
2022/11/15 01:21:15;;;;;;;44.95;28.90;;;;;;;;;;4997929;28;20068;-75
2022/11/15 01:23:42;;;;;;;41.22;27.20;;;;;;;;;;5006651;28;20315;-74
2022/11/15 01:26:10;;;;;;;41.53;27.05;;;;;;;;;;5004481;28;20049;-74
2022/11/15 01:28:37;;;;;;;43.33;26.85;;;;;;;;;;5008004;28;20045;-74
2022/11/15 01:31:04;;;;;;;41.22;26.85;;;;;;;;;;4996202;28;20535;-74
2022/11/15 01:33:31;;;;;;;40.80;27.90;;;;;;;;;;5008457;28;20482;-73
2022/11/15 01:35:57;;;;;;;41.10;27.35;;;;;;;;;;4989292;28;20056;-74
2022/11/15 01:38:23;;;;;;;44.72;28.17;;;;;;;;;;4987006;28;20188;-73
2022/11/15 01:40:49;;;;;;;38.05;27.02;;;;;;;;;;5021240;28;20174;-73
2022/11/15 01:43:26;;;;;;;37.10;25.63;;;;;;;;;;5002235;28;20804;-74
2022/11/15 01:45:59;;;;;;;35.63;25.30;;;;;;;;;;5003035;28;20047;-74
2022/11/15 01:48:28;;;;;;;36.65;25.73;;;;;;;;;;4990833;28;20044;-73
2022/11/15 01:50:54;;;;;;;39.72;26.50;;;;;;;;;;5006067;28;20044;-74
2022/11/15 01:53:23;;;;;;;40.40;25.13;;;;;;;;;;5007345;28;20045;-73
2022/11/15 01:55:49;;;;;;;40.08;26.83;;;;;;;;;;4988523;28;20041;-74
2022/11/15 01:58:15;;;;;;;37.35;25.05;;;;;;;;;;5008225;28;20122;-74
2022/11/15 02:00:41;;;;;;;41.88;26.55;;;;;;;;;;5008698;28;20072;-74
2022/11/15 02:03:07;;;;;;;36.35;25.27;;;;;;;;;;5011726;28;20044;-73
2022/11/15 02:05:35;;;;;;;36.55;25.35;;;;;;;;;;5008860;28;20041;-74
2022/11/15 02:08:01;;;;;;;34.83;26.00;;;;;;;;;;5010647;28;20512;-72
2022/11/15 02:10:28;;;;;;;34.72;25.05;;;;;;;;;;5012402;28;20976;-72
2022/11/15 02:12:54;;;;;;;37.53;26.17;;;;;;;;;;5011439;28;20033;-73
2022/11/15 02:15:21;;;;;;;36.85;26.67;;;;;;;;;;5018396;28;20041;-72
2022/11/15 02:18:06;;;;;;;36.67;26.55;;;;;;;;;;5015091;28;20112;-72
2022/11/15 02:20:44;;;;;;;39.08;26.45;;;;;;;;;;5014542;28;20125;-73
2022/11/15 02:23:16;;;;;;;39.92;27.65;;;;;;;;;;5018196;28;20259;-73
2022/11/15 02:26:08;;;;;;;38.75;26.23;;;;;;;;;;5023275;28;20072;-73
2022/11/15 02:28:53;;;;;;;39.97;25.55;;;;;;;;;;5027865;28;20121;-73
2022/11/15 02:31:22;;;;;;;36.28;25.52;;;;;;;;;;5013991;28;20098;-73
2022/11/15 02:33:54;;;;;;;41.65;25.70;;;;;;;;;;5002033;28;20032;-73
2022/11/15 02:36:20;;;;;;;37.25;25.80;;;;;;;;;;5007914;28;20052;-74
2022/11/15 02:39:22;;;;;;;41.88;26.48;;;;;;;;;;5008362;28;20115;-73
2022/11/15 02:41:56;;;;;;;41.05;27.13;;;;;;;;;;4923426;28;20046;-73
2022/11/15 02:44:31;;;;;;;39.47;26.63;;;;;;;;;;5012577;28;20045;-73
2022/11/15 02:47:12;;;;;;;39.40;25.77;;;;;;;;;;5007672;28;20048;-74
2022/11/15 02:49:39;;;;;;;43.35;26.55;;;;;;;;;;5010106;28;20041;-73
2022/11/15 02:52:05;;;;;;;39.40;25.15;;;;;;;;;;5004397;28;20029;-73
2022/11/15 02:54:33;;;;;;;38.58;25.13;;;;;;;;;;4997833;28;20124;-73
2022/11/15 02:57:13;;;;;;;40.15;23.65;;;;;;;;;;5005325;28;20138;-73
2022/11/15 02:59:52;;;;;;;36.10;22.70;;;;;;;;;;5018019;28;20048;-73
2022/11/15 03:02:28;;;;;;;34.60;22.73;;;;;;;;;;5003683;28;20052;-73
2022/11/15 03:04:56;;;;;;;36.42;22.42;;;;;;;;;;4998655;28;20049;-74
2022/11/15 03:07:22;;;;;;;36.85;22.95;;;;;;;;;;5001732;28;20553;-74
2022/11/15 03:09:57;;;;;;;37.78;24.40;;;;;;;;;;5001920;28;20097;-74
2022/11/15 03:12:26;;;;;;;40.83;25.25;;;;;;;;;;4978733;28;20623;-73
2022/11/15 03:14:53;;;;;;;39.25;22.90;;;;;;;;;;5004221;28;20044;-74
2022/11/15 03:17:36;;;;;;;43.42;24.83;;;;;;;;;;5021772;28;20060;-74
2022/11/15 03:20:04;;;;;;;40.80;23.92;;;;;;;;;;5005546;28;20048;-73
2022/11/15 03:22:34;;;;;;;41.45;23.25;;;;;;;;;;5004003;28;20163;-73
2022/11/15 03:25:02;;;;;;;39.40;24.40;;;;;;;;;;5000122;28;20040;-74
2022/11/15 03:27:32;;;;;;;38.78;24.08;;;;;;;;;;5004947;28;20041;-74
2022/11/15 03:30:02;;;;;;;38.20;24.52;;;;;;;;;;5006288;28;20198;-74
2022/11/15 03:32:30;;;;;;;44.88;25.52;;;;;;;;;;4998210;28;20041;-74
2022/11/15 03:35:02;;;;;;;41.53;25.15;;;;;;;;;;5000957;28;20057;-74
2022/11/15 03:37:37;;;;;;;39.60;24.98;;;;;;;;;;5001986;28;20049;-74
2022/11/15 03:40:04;;;;;;;43.88;24.80;;;;;;;;;;5000628;28;20060;-74
2022/11/15 03:42:49;;;;;;;42.45;25.90;;;;;;;;;;4997106;28;20498;-74
2022/11/15 03:45:18;;;;;;;43.03;25.67;;;;;;;;;;5001602;28;20944;-74
2022/11/15 03:47:47;;;;;;;42.88;25.58;;;;;;;;;;5007675;28;20060;-73
2022/11/15 03:50:16;;;;;;;43.83;26.08;;;;;;;;;;5003972;28;22289;-73
2022/11/15 03:52:42;;;;;;;44.10;25.15;;;;;;;;;;5002435;28;21048;-73
2022/11/15 03:55:11;;;;;;;44.38;25.67;;;;;;;;;;4998652;28;20049;-73
2022/11/15 03:57:37;;;;;;;47.60;27.67;;;;;;;;;;5003598;28;20044;-75
2022/11/15 04:00:04;;;;;;;47.90;28.13;;;;;;;;;;4988501;28;20049;-74
2022/11/15 04:02:30;;;;;;;51.42;28.35;;;;;;;;;;5006775;28;20064;-74
2022/11/15 04:04:56;;;;;;;55.33;30.23;;;;;;;;;;5014676;28;20060;-73
2022/11/15 04:07:22;;;;;;;51.22;29.17;;;;;;;;;;5017822;28;20049;-74
2022/11/15 04:10:05;;;;;;;50.90;30.05;;;;;;;;;;5007176;28;20090;-72
2022/11/15 04:12:31;;;;;;;51.45;29.52;;;;;;;;;;5013054;28;20555;-73
2022/11/15 04:15:07;;;;;;;50.53;29.63;;;;;;;;;;5022279;28;20064;-74
2022/11/15 04:17:53;;;;;;;52.53;29.85;;;;;;;;;;5014882;28;20037;-73
2022/11/15 04:25:54;;;;;;;58.13;30.50;;;;;;;;;;5003265;28;20049;-74
2022/11/15 04:28:20;;;;;;;52.30;30.42;;;;;;;;;;5002003;28;20055;-75
2022/11/15 04:30:46;;;;;;;57.30;30.67;;;;;;;;;;4994131;28;20052;-74
2022/11/15 04:33:12;;;;;;;58.35;31.42;;;;;;;;;;5007387;28;20065;-73
2022/11/15 04:35:38;;;;;;;60.80;29.15;;;;;;;;;;4997024;28;20049;-73
2022/11/15 04:38:06;;;;;;;54.20;28.98;;;;;;;;;;4998553;28;20357;-73
2022/11/15 04:40:32;;;;;;;58.15;29.90;;;;;;;;;;5001104;28;20049;-74
2022/11/15 04:42:58;;;;;;;60.80;31.40;;;;;;;;;;5006761;28;20048;-74
2022/11/15 04:45:24;;;;;;;61.22;31.15;;;;;;;;;;5021812;28;20056;-74
2022/11/15 04:47:50;;;;;;;73.32;33.72;;;;;;;;;;5007158;28;20041;-74
2022/11/15 04:50:17;;;;;;;69.53;33.35;;;;;;;;;;4980333;28;20045;-74
2022/11/15 04:52:51;;;;;;;76.40;36.50;;;;;;;;;;5003452;28;20685;-72
2022/11/15 04:55:20;;;;;;;79.47;35.65;;;;;;;;;;5003846;28;20687;-73
2022/11/15 04:57:46;;;;;;;76.03;33.65;;;;;;;;;;5004430;28;20057;-72
2022/11/15 05:00:14;;;;;;;81.60;36.33;;;;;;;;;;5006831;28;20052;-73
2022/11/15 05:05:24;;;;;;;82.03;36.50;;;;;;;;;;5003088;28;21274;-72
2022/11/15 05:07:51;;;;;;;105.13;40.40;;;;;;;;;;5003749;28;20045;-72
2022/11/15 05:10:17;;;;;;;83.30;38.05;;;;;;;;;;5003584;28;20172;-72
2022/11/15 05:12:43;;;;;;;97.22;39.10;;;;;;;;;;5004622;28;20049;-72
2022/11/15 05:15:09;;;;;;;85.72;37.50;;;;;;;;;;4967609;28;20246;-74
2022/11/15 05:17:35;;;;;;;87.05;37.67;;;;;;;;;;5005891;28;20059;-72
2022/11/15 05:20:01;;;;;;;88.38;38.92;;;;;;;;;;5007559;28;20045;-73
2022/11/15 05:22:28;;;;;;;94.13;41.25;;;;;;;;;;4979177;28;21966;-73
2022/11/15 05:24:54;;;;;;;107.05;41.88;;;;;;;;;;5013732;28;20293;-73
2022/11/15 05:27:20;;;;;;;99.00;41.70;;;;;;;;;;5002328;28;20045;-73
2022/11/15 05:29:46;;;;;;;98.60;42.42;;;;;;;;;;4982404;28;20210;-73
2022/11/15 05:32:13;;;;;;;99.65;42.03;;;;;;;;;;5000382;28;20135;-73
2022/11/15 05:34:39;;;;;;;98.47;41.30;;;;;;;;;;5008550;28;21244;-73
2022/11/15 05:37:05;;;;;;;113.43;44.72;;;;;;;;;;5033492;28;20061;-74
2022/11/15 05:39:31;;;;;;;104.32;42.72;;;;;;;;;;5018288;28;20053;-73
2022/11/15 05:42:00;;;;;;;120.60;45.95;;;;;;;;;;5003964;28;20122;-73
2022/11/15 05:44:27;;;;;;;121.28;47.92;;;;;;;;;;5017323;28;20041;-73
2022/11/15 05:46:54;;;;;;;120.90;47.17;;;;;;;;;;5018964;28;20037;-73
2022/11/15 05:49:22;;;;;;;124.60;49.60;;;;;;;;;;5018445;28;20041;-73
2022/11/15 05:51:49;;;;;;;123.90;50.22;;;;;;;;;;5017030;28;20045;-72
2022/11/15 05:54:16;;;;;;;123.75;50.55;;;;;;;;;;5049950;28;20059;-73
2022/11/15 05:56:43;;;;;;;139.68;50.83;;;;;;;;;;5038633;28;20049;-72
2022/11/15 05:59:10;;;;;;;141.68;52.75;;;;;;;;;;5021942;28;20045;-73
2022/11/15 06:01:36;;;;;;;156.95;52.33;;;;;;;;;;5008921;28;20124;-73
2022/11/15 06:04:02;;;;;;;156.68;54.50;;;;;;;;;;5027562;28;20925;-73
2022/11/15 06:06:28;;;;;;;166.50;58.83;;;;;;;;;;5007424;28;20421;-72
2022/11/15 06:08:54;;;;;;;174.90;55.97;;;;;;;;;;5009766;28;20040;-73
2022/11/15 06:11:21;;;;;;;196.65;60.97;;;;;;;;;;4993438;28;21951;-73
2022/11/15 06:13:47;;;;;;;205.48;58.35;;;;;;;;;;4989528;28;20060;-73
2022/11/15 06:16:13;;;;;;;184.10;56.30;;;;;;;;;;4992186;28;20052;-73
2022/11/15 06:18:39;;;;;;;220.88;65.68;;;;;;;;;;4997176;28;20177;-73
2022/11/15 06:21:05;;;;;;;221.05;66.63;;;;;;;;;;5009106;28;20101;-73
2022/11/15 06:23:32;;;;;;;224.25;66.63;;;;;;;;;;5010672;28;20037;-73
2022/11/15 06:25:59;;;;;;;209.15;68.13;;;;;;;;;;5000047;28;20052;-73
2022/11/15 06:28:25;;;;;;;221.40;66.28;;;;;;;;;;5020787;28;20053;-76
2022/11/15 06:30:51;;;;;;;207.25;66.10;;;;;;;;;;5008116;28;20052;-73
2022/11/15 06:33:17;;;;;;;231.07;66.15;;;;;;;;;;5012770;28;20041;-73
2022/11/15 06:35:43;;;;;;;207.38;67.63;;;;;;;;;;5011090;28;20089;-74
2022/11/15 06:38:10;;;;;;;222.98;65.43;;;;;;;;;;5016335;28;20353;-73
2022/11/15 06:40:36;;;;;;;243.25;70.38;;;;;;;;;;5017229;28;20487;-74
2022/11/15 06:43:03;;;;;;;226.55;68.63;;;;;;;;;;5012890;28;20055;-73
2022/11/15 06:45:29;;;;;;;207.73;63.78;;;;;;;;;;5010911;28;20476;-74
2022/11/15 06:47:55;;;;;;;206.40;67.85;;;;;;;;;;5006613;28;20541;-73
2022/11/15 06:50:21;;;;;;;210.55;66.85;;;;;;;;;;5012989;28;20041;-74
2022/11/15 06:52:48;;;;;;;220.00;67.05;;;;;;;;;;5010477;28;20044;-74
2022/11/15 06:55:14;;;;;;;201.45;66.35;;;;;;;;;;5008692;28;20708;-73
2022/11/15 06:57:47;;;;;;;206.63;70.95;;;;;;;;;;4991596;28;20052;-74
2022/11/15 07:00:13;;;;;;;193.10;64.85;;;;;;;;;;5010762;28;20076;-73
2022/11/15 07:02:39;;;;;;;188.98;65.18;;;;;;;;;;5029560;28;20048;-74
2022/11/15 07:05:05;;;;;;;177.98;63.25;;;;;;;;;;5031535;28;21738;-74
2022/11/15 07:07:31;;;;;;;204.55;65.47;;;;;;;;;;5013566;28;20470;-74
2022/11/15 07:09:57;;;;;;;184.10;65.10;;;;;;;;;;4995856;28;20044;-75
2022/11/15 07:12:23;;;;;;;182.43;66.18;;;;;;;;;;5010366;28;20396;-74
2022/11/15 07:14:49;;;;;;;182.55;64.90;;;;;;;;;;5010339;28;20045;-76
2022/11/15 07:17:16;;;;;;;190.95;64.95;;;;;;;;;;5001916;28;20045;-76
2022/11/15 07:19:42;;;;;;;167.80;59.67;;;;;;;;;;5003335;28;20056;-74
2022/11/15 07:22:08;;;;;;;185.98;64.68;;;;;;;;;;5014139;28;20106;-76
2022/11/15 07:24:34;;;;;;;172.98;63.83;;;;;;;;;;5001991;28;20074;-74
2022/11/15 07:27:00;;;;;;;163.65;64.38;;;;;;;;;;5010169;28;20072;-75
2022/11/15 07:29:26;;;;;;;160.20;63.00;;;;;;;;;;5002753;28;20040;-76
2022/11/15 07:31:52;;;;;;;154.45;60.28;;;;;;;;;;5025705;28;20055;-75
2022/11/15 07:34:18;;;;;;;153.15;61.00;;;;;;;;;;5048780;28;20037;-75
2022/11/15 07:36:44;;;;;;;150.70;60.15;;;;;;;;;;5021961;28;20045;-75
2022/11/15 07:39:12;;;;;;;154.15;59.45;;;;;;;;;;5017685;28;20056;-75
2022/11/15 07:41:38;;;;;;;132.88;56.13;;;;;;;;;;5010797;28;20217;-75
2022/11/15 07:44:05;;;;;;;148.98;56.03;;;;;;;;;;5016618;28;20473;-75
2022/11/15 07:46:31;;;;;;;126.60;53.40;;;;;;;;;;4991145;28;20094;-75
2022/11/15 07:48:57;;;;;;;126.22;54.65;;;;;;;;;;5009179;28;20110;-76
2022/11/15 07:51:24;;;;;;;112.78;50.53;;;;;;;;;;5011068;28;20127;-76
2022/11/15 07:53:50;;;;;;;109.25;51.13;;;;;;;;;;4992766;28;20053;-75
2022/11/15 07:56:16;;;;;;;108.68;50.60;;;;;;;;;;4995296;28;20514;-75
2022/11/15 07:58:42;;;;;;;108.30;50.65;;;;;;;;;;5010865;28;20118;-74
2022/11/15 08:01:10;;;;;;;94.18;46.60;;;;;;;;;;5010078;28;20323;-74
2022/11/15 08:03:36;;;;;;;99.88;48.33;;;;;;;;;;5008259;28;20581;-74
2022/11/15 08:06:03;;;;;;;101.18;46.50;;;;;;;;;;5007951;28;20068;-74
2022/11/15 08:08:30;;;;;;;97.82;46.67;;;;;;;;;;4993570;28;20129;-73
2022/11/15 08:10:58;;;;;;;97.47;45.10;;;;;;;;;;5027955;28;20048;-74
2022/11/15 08:13:24;;;;;;;88.25;44.45;;;;;;;;;;5008871;28;20044;-74
2022/11/15 08:15:50;;;;;;;88.22;45.30;;;;;;;;;;5004144;28;20122;-74
2022/11/15 08:24:10;;;;;;;92.25;45.58;;;;;;;;;;5121833;27;20449;-72
2022/11/15 08:26:37;;;;;;;73.55;40.38;;;;;;;;;;5109710;27;20055;-73
2022/11/15 08:29:03;;;;;;;77.60;42.58;;;;;;;;;;5112182;27;20057;-73
2022/11/15 08:31:29;;;;;;;74.40;41.42;;;;;;;;;;5114153;27;20043;-71
2022/11/15 08:33:55;;;;;;;72.85;41.70;;;;;;;;;;5109944;27;20028;-71
2022/11/15 08:36:21;;;;;;;75.70;41.15;;;;;;;;;;5109651;27;20106;-72
2022/11/15 08:38:47;;;;;;;75.22;41.22;;;;;;;;;;5109588;27;22133;-72
2022/11/15 08:41:15;;;;;;;68.13;39.08;;;;;;;;;;5116742;27;20043;-71
2022/11/15 08:43:41;;;;;;;64.30;39.80;;;;;;;;;;5113963;27;20075;-72
2022/11/15 08:46:09;;;;;;;62.67;38.47;;;;;;;;;;5112788;27;20138;-72
2022/11/15 08:48:35;;;;;;;76.25;39.67;;;;;;;;;;5113881;27;20182;-72
2022/11/15 08:51:01;;;;;;;67.22;38.53;;;;;;;;;;5109092;27;20047;-72
2022/11/15 08:53:27;;;;;;;70.07;38.80;;;;;;;;;;5114404;27;20068;-72
2022/11/15 08:55:53;;;;;;;61.60;36.97;;;;;;;;;;5116530;27;20039;-72
2022/11/15 08:58:19;;;;;;;60.45;36.83;;;;;;;;;;5110589;27;20050;-71
2022/11/15 09:00:45;;;;;;;65.75;36.75;;;;;;;;;;5112063;27;20047;-70
2022/11/15 09:03:11;;;;;;;56.17;36.83;;;;;;;;;;5113069;27;20166;-70
2022/11/15 09:05:37;;;;;;;59.10;37.67;;;;;;;;;;5115783;27;20038;-71
2022/11/15 09:08:04;;;;;;;59.53;35.38;;;;;;;;;;5119093;27;21302;-70
2022/11/15 09:10:30;;;;;;;55.00;34.58;;;;;;;;;;5123007;27;20040;-70
2022/11/15 09:12:57;;;;;;;58.25;35.17;;;;;;;;;;5119982;27;20455;-70
2022/11/15 09:15:23;;;;;;;53.42;34.95;;;;;;;;;;5120422;27;20114;-70
2022/11/15 09:17:49;;;;;;;57.15;34.35;;;;;;;;;;5118429;27;20752;-73
2022/11/15 09:20:15;;;;;;;52.85;35.40;;;;;;;;;;5118791;27;20494;-70
2022/11/15 09:22:42;;;;;;;52.10;34.25;;;;;;;;;;5121404;27;20065;-70
2022/11/15 09:25:08;;;;;;;48.60;33.72;;;;;;;;;;5116762;27;20102;-70
2022/11/15 09:27:34;;;;;;;50.47;33.00;;;;;;;;;;5121489;27;22353;-70
2022/11/15 09:30:00;;;;;;;48.22;31.92;;;;;;;;;;5117200;27;20043;-70
2022/11/15 09:32:32;;;;;;;44.70;30.67;;;;;;;;;;5118299;27;20107;-71
2022/11/15 09:34:58;;;;;;;46.17;30.48;;;;;;;;;;5104360;27;20082;-71
2022/11/15 09:37:24;;;;;;;47.00;29.33;;;;;;;;;;5105757;27;20078;-71
2022/11/15 09:39:51;;;;;;;37.92;28.63;;;;;;;;;;5106069;27;20073;-71
2022/11/15 09:42:33;;;;;;;43.95;29.27;;;;;;;;;;5104449;27;20043;-70
2022/11/15 09:45:05;;;;;;;36.05;27.25;;;;;;;;;;5104266;27;20069;-71
2022/11/15 09:47:37;;;;;;;39.08;26.92;;;;;;;;;;5102689;27;20807;-71
2022/11/15 09:50:09;;;;;;;40.20;28.15;;;;;;;;;;5101511;27;20075;-71
2022/11/15 09:52:36;;;;;;;34.42;27.52;;;;;;;;;;5102690;27;20047;-71
2022/11/15 09:55:02;;;;;;;41.80;26.95;;;;;;;;;;5102244;27;20043;-72
2022/11/15 09:57:31;;;;;;;41.38;27.85;;;;;;;;;;5105142;27;20043;-70
2022/11/15 10:00:05;;;;;;;36.97;27.38;;;;;;;;;;5103830;27;22594;-71
2022/11/15 10:02:40;;;;;;;42.80;27.10;;;;;;;;;;5116833;27;20043;-71
2022/11/15 10:05:10;;;;;;;37.63;28.13;;;;;;;;;;5104811;27;20098;-71
2022/11/15 10:07:42;;;;;;;40.63;27.38;;;;;;;;;;5105355;27;20646;-71
2022/11/15 10:10:18;;;;;;;43.00;28.02;;;;;;;;;;5106358;27;20035;-71
2022/11/15 10:12:46;;;;;;;42.70;28.40;;;;;;;;;;5104173;27;20054;-71
2022/11/15 10:15:14;;;;;;;39.90;28.15;;;;;;;;;;5106535;27;20071;-70
2022/11/15 10:17:40;;;;;;;37.28;29.02;;;;;;;;;;5106468;27;20054;-71
2022/11/15 10:20:22;;;;;;;38.42;27.92;;;;;;;;;;5107775;27;20049;-71
2022/11/15 10:22:52;;;;;;;38.83;30.15;;;;;;;;;;5104419;27;20127;-71
2022/11/15 10:25:19;;;;;;;38.13;29.05;;;;;;;;;;5103409;27;20146;-71
2022/11/15 10:27:51;;;;;;;43.88;28.77;;;;;;;;;;5106904;27;20046;-71
2022/11/15 10:30:18;;;;;;;35.28;26.17;;;;;;;;;;5105564;27;20741;-72
2022/11/15 10:32:45;;;;;;;38.22;28.25;;;;;;;;;;5106930;27;20055;-72
2022/11/15 10:35:19;;;;;;;38.65;29.60;;;;;;;;;;5101930;27;20039;-71
2022/11/15 10:37:45;;;;;;;38.22;29.02;;;;;;;;;;5099728;27;20110;-71
2022/11/15 10:40:19;;;;;;;41.80;30.77;;;;;;;;;;5097987;27;20051;-71
2022/11/15 10:42:45;;;;;;;;;;;;;;;;;;5098196;27;20048;-71
2022/11/15 10:45:28;;;;;;;46.55;31.05;;;;;;;;;;5100675;27;20009;-71
2022/11/15 10:47:54;;;;;;;46.10;30.38;;;;;;;;;;5102386;27;20067;-71
2022/11/15 10:50:33;;;;;;;47.10;33.20;;;;;;;;;;5100662;27;20035;-72
2022/11/15 10:53:00;;;;;;;52.58;33.42;;;;;;;;;;5103806;27;20047;-71
2022/11/15 10:55:35;;;;;;;47.28;33.75;;;;;;;;;;5100685;27;20053;-72
2022/11/15 10:58:07;;;;;;;47.85;34.72;;;;;;;;;;5102844;27;20047;-72
2022/11/15 11:00:34;;;;;;;48.88;35.08;;;;;;;;;;5102928;27;20035;-71
2022/11/15 11:03:00;;;;;;;50.42;33.50;;;;;;;;;;5100246;27;20043;-72
2022/11/15 11:05:26;;;;;;;52.55;36.25;;;;;;;;;;5101160;27;20133;-72
2022/11/15 11:08:01;;;;;;;57.80;34.92;;;;;;;;;;5099364;27;20050;-72
2022/11/15 11:10:27;;;;;;;53.58;34.97;;;;;;;;;;5099522;27;20043;-72
2022/11/15 11:12:53;;;;;;;49.75;33.88;;;;;;;;;;5100486;27;20043;-71
2022/11/15 11:15:20;;;;;;;46.15;33.33;;;;;;;;;;5101444;27;20043;-72
2022/11/15 11:17:58;;;;;;;43.33;32.08;;;;;;;;;;5103804;27;20051;-70
2022/11/15 11:20:27;;;;;;;44.85;32.63;;;;;;;;;;5101089;27;20058;-71
2022/11/15 11:22:56;;;;;;;49.45;33.45;;;;;;;;;;5103185;27;20743;-71
2022/11/15 11:25:28;;;;;;;44.35;32.58;;;;;;;;;;5101195;27;20422;-72
2022/11/15 11:28:06;;;;;;;46.58;34.17;;;;;;;;;;5100721;27;20521;-72
2022/11/15 11:30:42;;;;;;;47.78;35.45;;;;;;;;;;5101276;27;20047;-72
2022/11/15 11:33:08;;;;;;;55.72;36.53;;;;;;;;;;5100502;27;20600;-72
2022/11/15 11:35:37;;;;;;;56.13;37.97;;;;;;;;;;5102072;27;20139;-72
2022/11/15 11:38:03;;;;;;;51.65;36.25;;;;;;;;;;5098294;27;20096;-72
2022/11/15 11:40:40;;;;;;;48.28;35.50;;;;;;;;;;5103732;27;20051;-72
2022/11/15 11:43:27;;;;;;;51.30;36.38;;;;;;;;;;5102427;27;20038;-73
2022/11/15 11:45:53;;;;;;;45.55;33.95;;;;;;;;;;5103716;27;20043;-73
2022/11/15 11:48:40;;;;;;;38.30;30.80;;;;;;;;;;5107903;27;20047;-72
2022/11/15 11:51:12;;;;;;;39.88;30.23;;;;;;;;;;5105149;27;20047;-71
2022/11/15 11:53:41;;;;;;;35.65;29.38;;;;;;;;;;5109437;27;22594;-72
2022/11/15 11:56:37;;;;;;;44.65;32.20;;;;;;;;;;5105521;27;20043;-71
2022/11/15 11:59:10;;;;;;;40.63;32.15;;;;;;;;;;5098374;27;20048;-71
2022/11/15 12:01:40;;;;;;;37.03;30.17;;;;;;;;;;5103902;27;20036;-71
2022/11/15 12:04:06;;;;;;;39.58;29.40;;;;;;;;;;5099761;27;20048;-71
2022/11/15 12:06:51;;;;;;;37.25;29.90;;;;;;;;;;5086842;27;20055;-70
2022/11/15 12:09:17;;;;;;;37.42;29.70;;;;;;;;;;5101887;27;20074;-70
2022/11/15 12:11:59;;;;;;;38.28;30.25;;;;;;;;;;5099923;27;20023;-71
2022/11/15 12:14:43;;;;;;;36.92;30.48;;;;;;;;;;5100761;28;20043;-71
2022/11/15 12:17:11;;;;;;;37.35;29.20;;;;;;;;;;5096610;27;20518;-71
2022/11/15 12:19:37;;;;;;;39.17;30.08;;;;;;;;;;5099016;27;20099;-71
2022/11/15 12:22:07;;;;;;;39.50;31.23;;;;;;;;;;5098241;28;20035;-71
2022/11/15 12:25:02;;;;;;;35.67;28.00;;;;;;;;;;5097714;28;20062;-71
2022/11/15 12:27:40;;;;;;;35.50;27.73;;;;;;;;;;5094457;28;22426;-71
2022/11/15 12:30:12;;;;;;;32.58;27.50;;;;;;;;;;5097097;28;20078;-73
2022/11/15 12:32:40;;;;;;;32.50;27.80;;;;;;;;;;5097864;28;20064;-71
2022/11/15 12:35:21;;;;;;;30.05;26.67;;;;;;;;;;5098361;28;20055;-71
2022/11/15 12:37:51;;;;;;;28.85;24.02;;;;;;;;;;5097285;28;20050;-71
2022/11/15 12:40:20;;;;;;;29.98;24.27;;;;;;;;;;5101086;28;20076;-71
2022/11/15 12:42:58;;;;;;;27.55;22.90;;;;;;;;;;5096972;28;20047;-73
2022/11/15 12:45:44;;;;;;;27.08;22.92;;;;;;;;;;5098078;28;20745;-73
2022/11/15 12:48:16;;;;;;;30.25;24.00;;;;;;;;;;5096931;28;20120;-72
2022/11/15 12:50:54;;;;;;;28.00;25.15;;;;;;;;;;5097725;28;21006;-72
2022/11/15 12:53:23;;;;;;;29.85;25.48;;;;;;;;;;5098745;28;20362;-71
2022/11/15 12:56:08;;;;;;;28.55;23.73;;;;;;;;;;5097984;28;20629;-72
2022/11/15 12:58:52;;;;;;;25.75;22.05;;;;;;;;;;5094082;28;20055;-73
2022/11/15 13:01:42;;;;;;;25.10;19.92;;;;;;;;;;5098112;28;21114;-71
2022/11/15 13:04:21;;;;;;;20.77;18.58;;;;;;;;;;5090597;28;20054;-71
2022/11/15 13:06:48;;;;;;;18.40;14.40;;;;;;;;;;5097151;28;22088;-72
2022/11/15 13:09:29;;;;;;;15.95;14.23;;;;;;;;;;5096545;27;20047;-72
2022/11/15 13:11:56;;;;;;;12.30;10.52;;;;;;;;;;5098160;27;20051;-72
2022/11/15 13:14:39;;;;;;;14.30;9.00;;;;;;;;;;5098469;27;21313;-72
2022/11/15 13:17:20;;;;;;;9.88;7.57;;;;;;;;;;5098498;27;20083;-72
2022/11/15 13:19:47;;;;;;;7.43;6.43;;;;;;;;;;5102208;27;20071;-72
2022/11/15 13:24:59;;;;;;;12.48;4.70;;;;;;;;;;5099281;27;20079;-74
2022/11/15 13:27:25;;;;;;;10.82;5.03;;;;;;;;;;5102634;27;20131;-75
2022/11/15 13:29:51;;;;;;;6.85;4.75;;;;;;;;;;5099584;27;20040;-73
2022/11/15 13:32:17;;;;;;;7.35;4.90;;;;;;;;;;5117281;27;20825;-74
2022/11/15 13:34:46;;;;;;;6.90;5.10;;;;;;;;;;5101529;27;20697;-71
2022/11/15 13:37:39;;;;;;;9.55;5.32;;;;;;;;;;5100820;27;21022;-72
2022/11/15 13:40:25;;;;;;;9.32;5.53;;;;;;;;;;5097622;27;20106;-73
2022/11/15 13:42:51;;;;;;;8.30;5.90;;;;;;;;;;5098789;27;20046;-73
2022/11/15 13:45:18;;;;;;;12.93;6.28;;;;;;;;;;5100313;27;20517;-73
2022/11/15 13:47:44;;;;;;;13.55;7.97;;;;;;;;;;5101446;27;20069;-72
2022/11/15 13:50:12;;;;;;;9.60;5.95;;;;;;;;;;5099594;27;20043;-73
2022/11/15 13:52:40;;;;;;;8.35;6.60;;;;;;;;;;5102419;27;20070;-73
2022/11/15 13:55:14;;;;;;;13.23;7.28;;;;;;;;;;5092752;27;20948;-73
2022/11/15 13:57:40;;;;;;;;;;;;;;;;;;5098435;27;20296;-72
2022/11/15 14:00:22;;;;;;;9.68;6.60;;;;;;;;;;5097184;27;19927;-73
2022/11/15 14:02:48;;;;;;;11.30;6.05;;;;;;;;;;5097362;27;20131;-72
2022/11/15 14:05:16;;;;;;;10.07;6.22;;;;;;;;;;5098050;27;20105;-72
2022/11/15 14:07:53;;;;;;;10.68;6.28;;;;;;;;;;5093313;27;20771;-72
2022/11/15 14:10:33;;;;;;;8.50;6.30;;;;;;;;;;5098810;27;20046;-72
2022/11/15 14:13:00;;;;;;;9.90;7.72;;;;;;;;;;5096582;27;20073;-72
2022/11/15 14:15:36;;;;;;;9.48;6.30;;;;;;;;;;5095740;27;20043;-72
2022/11/15 14:18:03;;;;;;;8.35;7.50;;;;;;;;;;5098829;27;20076;-73
2022/11/15 14:20:32;;;;;;;13.20;7.53;;;;;;;;;;5098323;27;20087;-71
2022/11/15 14:23:06;;;;;;;9.38;6.60;;;;;;;;;;5097358;27;20063;-71
2022/11/15 14:25:33;;;;;;;11.05;7.95;;;;;;;;;;5097278;27;20059;-73
2022/11/15 14:28:10;;;;;;;9.43;6.60;;;;;;;;;;5100261;27;20039;-74
2022/11/15 14:30:36;;;;;;;14.13;7.30;;;;;;;;;;5096779;27;20135;-73
2022/11/15 14:33:02;;;;;;;11.00;7.53;;;;;;;;;;5097093;27;20046;-73
2022/11/15 14:35:29;;;;;;;12.73;7.57;;;;;;;;;;5097100;27;20096;-73
2022/11/15 14:37:55;;;;;;;16.83;12.68;;;;;;;;;;5096548;27;20048;-73
2022/11/15 14:40:22;;;;;;;14.52;10.65;;;;;;;;;;5096645;27;20066;-72
2022/11/15 14:42:49;;;;;;;17.08;11.32;;;;;;;;;;5098088;27;20051;-70
2022/11/15 14:45:20;;;;;;;18.17;10.68;;;;;;;;;;5099241;27;20034;-72